Mehmet Bey — 9HUD6 — position and weather

sailwx.info

Track history (hours):
 
Tides and Currents Weather Stations Pressure Air Temp Water Temp Dewpoint Dewpoint Depression Visibility Wind Speed Wind Dir Waves Ship Positions

Mehmet Bey

Last reported at 2014-Oct-21 19:30 UTC. Time now 2014-Oct-22 06:30 UTC.
Position N 40°55' E 027°38'.

Length 131 m; draft 6.5 m.

Type: Cargo ship. MMSI: 248864000.

Date/timePositionNaut miles runAvg speedWind from/ knotsBaromVisibWave heightAir tempDewpointWater temp
2014-Oct-21 19:30N 40°55' E 027°38'34 8.4
2014-Oct-21 15:26N 40°52' E 028°23'11 8.5
2014-Oct-21 14:08N 40°54' E 028°37'6 8.1
2014-Oct-21 13:21N 40°55' E 028°45'7 8.0
2014-Oct-21 12:32N 40°58' E 028°53'0 0.2
2014-Oct-21 10:24N 40°58' E 028°54'0 0.1
2014-Oct-21 09:24N 40°58' E 028°54'0 0.1
2014-Oct-21 08:06N 40°58' E 028°54'0 0.0
2014-Oct-21 06:30N 40°58' E 028°54'0 0.0
2014-Oct-21 05:30N 40°58' E 028°54'1 0.6
2014-Oct-21 04:33N 40°58' E 028°54'19 2.7
2014-Oct-20 21:33N 41°17' E 029°01'  
Track history (hours):
 
Tides and Currents Weather Stations Pressure Air Temp Water Temp Dewpoint Dewpoint Depression Visibility Wind Speed Wind Dir Waves Ship Positions

Mehmet Bey

Last reported at 2014-Oct-21 19:30 UTC. Time now 2014-Oct-22 06:30 UTC.
Position N 40°55' E 027°38'.

Length 131 m; draft 6.5 m.

Type: Cargo ship. MMSI: 248864000.

Date/timePositionNaut miles runAvg speedWind from/ knotsBaromVisibWave heightAir tempDewpointWater temp
2014-Oct-21 19:30N 40°55' E 027°38'34 8.4
2014-Oct-21 15:26N 40°52' E 028°23'11 8.5
2014-Oct-21 14:08N 40°54' E 028°37'6 8.1
2014-Oct-21 13:21N 40°55' E 028°45'7 8.0
2014-Oct-21 12:32N 40°58' E 028°53'0 0.2
2014-Oct-21 10:24N 40°58' E 028°54'0 0.1
2014-Oct-21 09:24N 40°58' E 028°54'0 0.1
2014-Oct-21 08:06N 40°58' E 028°54'0 0.0
2014-Oct-21 06:30N 40°58' E 028°54'0 0.0
2014-Oct-21 05:30N 40°58' E 028°54'1 0.6
2014-Oct-21 04:33N 40°58' E 028°54'19 2.7
2014-Oct-20 21:33N 41°17' E 029°01'  

Dump ship's entire track history